createdAt,value
2023-04-11T00:01:23.780Z,6.10
2023-04-11T00:03:50.765Z,7.17
2023-04-11T00:06:17.646Z,5.67
2023-04-11T00:08:45.712Z,5.93
2023-04-11T00:11:12.385Z,5.80
2023-04-11T00:13:39.105Z,7.77
2023-04-11T00:16:08.773Z,6.20
2023-04-11T00:18:37.806Z,6.90
2023-04-11T00:21:04.966Z,5.57
2023-04-11T00:23:31.729Z,6.73
2023-04-11T00:25:58.506Z,6.33
2023-04-11T00:28:25.404Z,5.90
2023-04-11T00:30:52.193Z,5.80
2023-04-11T00:33:18.896Z,5.50
2023-04-11T00:35:45.773Z,6.80
2023-04-11T00:38:12.517Z,5.83
2023-04-11T00:40:39.428Z,6.00
2023-04-11T00:43:06.179Z,6.97
2023-04-11T00:45:33.339Z,6.70
2023-04-11T00:48:01.120Z,5.97
2023-04-11T00:50:29.098Z,5.80
2023-04-11T00:52:57.784Z,5.90
2023-04-11T00:55:24.475Z,6.37
2023-04-11T00:57:54.139Z,5.97
2023-04-11T01:00:20.945Z,7.20
2023-04-11T01:02:47.813Z,7.60
2023-04-11T01:05:15.169Z,6.97
2023-04-11T01:07:45.246Z,8.73
2023-04-11T01:10:12.925Z,7.70
2023-04-11T01:12:40.722Z,7.30
2023-04-11T01:15:07.788Z,7.83
2023-04-11T01:17:34.640Z,7.57
2023-04-11T01:20:01.745Z,7.40
2023-04-11T01:22:29.655Z,7.80
2023-04-11T01:24:56.414Z,7.37
2023-04-11T01:27:23.301Z,9.20
2023-04-11T01:29:50.291Z,8.43
2023-04-11T01:32:16.999Z,8.57
2023-04-11T01:34:46.934Z,9.07
2023-04-11T01:37:13.821Z,9.37
2023-04-11T01:39:40.587Z,10.00
2023-04-11T01:42:08.598Z,8.23
2023-04-11T01:44:36.960Z,9.77
2023-04-11T01:47:04.069Z,9.03
2023-04-11T01:49:31.152Z,8.87
2023-04-11T01:51:57.972Z,8.40
2023-04-11T01:54:24.749Z,8.70
2023-04-11T01:56:52.345Z,8.07
2023-04-11T01:59:19.637Z,8.47
2023-04-11T02:01:46.448Z,10.00
2023-04-11T02:04:13.477Z,9.40
2023-04-11T02:06:40.257Z,9.83
2023-04-11T02:09:08.023Z,10.40
2023-04-11T02:11:34.865Z,8.40
2023-04-11T02:14:02.365Z,10.87
2023-04-11T02:16:30.047Z,9.77
2023-04-11T02:18:58.661Z,9.60
2023-04-11T02:21:25.640Z,9.33
2023-04-11T02:23:52.409Z,10.07
2023-04-11T02:26:19.204Z,9.57
2023-04-11T02:28:45.902Z,8.40
2023-04-11T02:31:12.704Z,9.00
2023-04-11T02:33:39.450Z,7.30
2023-04-11T02:36:06.557Z,9.30
2023-04-11T02:38:33.390Z,10.73
2023-04-11T02:41:00.624Z,8.10
2023-04-11T02:43:27.474Z,9.07
2023-04-11T02:45:59.219Z,9.00
2023-04-11T02:48:32.744Z,8.67
2023-04-11T02:50:59.447Z,9.33
2023-04-11T02:53:26.177Z,7.47
2023-04-11T02:55:52.943Z,9.93
2023-04-11T02:58:25.860Z,8.67
2023-04-11T03:00:52.637Z,9.00
2023-04-11T03:03:19.485Z,7.23
2023-04-11T03:05:47.094Z,8.90
2023-04-11T03:08:13.798Z,9.13
2023-04-11T03:10:40.471Z,10.30
2023-04-11T03:13:07.130Z,9.40
2023-04-11T03:15:33.802Z,8.00
2023-04-11T03:18:00.560Z,7.67
2023-04-11T03:20:27.388Z,9.13
2023-04-11T03:22:54.200Z,11.77
2023-04-11T03:25:21.330Z,10.07
2023-04-11T03:27:48.142Z,9.27
2023-04-11T03:30:15.429Z,9.90
2023-04-11T03:32:42.254Z,8.67
2023-04-11T03:35:09.357Z,9.77
2023-04-11T03:37:36.587Z,9.17
2023-04-11T03:40:04.286Z,10.53
2023-04-11T03:42:31.032Z,9.57
2023-04-11T03:44:57.713Z,9.30
2023-04-11T03:47:24.502Z,9.13
2023-04-11T03:49:51.308Z,8.53
2023-04-11T03:52:18.236Z,8.53
2023-04-11T03:54:47.089Z,9.07
2023-04-11T03:57:14.546Z,11.30
2023-04-11T03:59:41.254Z,8.70
2023-04-11T04:02:08.428Z,10.30
2023-04-11T04:04:36.752Z,9.43
2023-04-11T04:07:04.338Z,9.23
2023-04-11T04:09:31.082Z,8.07
2023-04-11T04:11:57.796Z,7.23
2023-04-11T04:14:24.525Z,6.97
2023-04-11T04:16:51.390Z,6.83
2023-04-11T04:19:18.232Z,6.63
2023-04-11T04:21:45.927Z,5.53
2023-04-11T04:24:12.708Z,3.17
2023-04-11T04:26:39.823Z,3.57
2023-04-11T04:29:06.671Z,2.33
2023-04-11T04:31:33.931Z,3.03
2023-04-11T04:34:08.913Z,3.47
2023-04-11T04:36:49.426Z,2.60
2023-04-11T04:39:19.493Z,1.83
2023-04-11T04:41:49.703Z,1.13
2023-04-11T04:44:16.684Z,1.40
2023-04-11T04:46:44.355Z,2.93
2023-04-11T04:49:11.112Z,1.07
2023-04-11T04:51:40.261Z,1.67
2023-04-11T04:54:06.958Z,1.53
2023-04-11T04:56:33.675Z,1.80
2023-04-11T04:59:00.434Z,2.53
2023-04-11T05:01:27.258Z,1.43
2023-04-11T05:03:59.577Z,4.03
2023-04-11T05:06:29.216Z,1.43
2023-04-11T05:08:59.032Z,3.40
2023-04-11T05:11:27.461Z,1.90
2023-04-11T05:13:54.777Z,2.10
2023-04-11T05:16:22.337Z,1.50
2023-04-11T05:18:49.089Z,3.03
2023-04-11T05:21:15.836Z,3.43
2023-04-11T05:23:42.756Z,1.73
2023-04-11T05:26:10.416Z,3.53
2023-04-11T05:28:37.465Z,2.10
2023-04-11T05:31:04.511Z,2.17
2023-04-11T05:33:31.441Z,3.80
2023-04-11T05:35:58.327Z,2.00
2023-04-11T05:38:25.092Z,3.20
2023-04-11T05:40:52.111Z,2.33
2023-04-11T05:43:18.967Z,1.30
2023-04-11T05:45:47.842Z,1.80
2023-04-11T05:48:16.121Z,3.43
2023-04-11T05:50:43.136Z,1.93
2023-04-11T05:53:09.869Z,1.30
2023-04-11T05:55:37.276Z,1.30
2023-04-11T05:58:04.951Z,1.97
2023-04-11T06:00:32.452Z,1.77
2023-04-11T06:03:00.391Z,1.43
2023-04-11T06:05:31.262Z,1.83
2023-04-11T06:07:59.647Z,3.03
2023-04-11T06:10:27.053Z,2.67
2023-04-11T06:12:54.375Z,2.23
2023-04-11T06:15:22.426Z,2.20
2023-04-11T06:17:49.276Z,2.50
2023-04-11T06:20:16.807Z,2.10
2023-04-11T06:22:43.918Z,2.03
2023-04-11T06:25:10.864Z,3.63
2023-04-11T06:27:37.709Z,5.13
2023-04-11T06:30:05.319Z,2.03
2023-04-11T06:32:32.070Z,4.03
2023-04-11T06:34:58.971Z,2.43
2023-04-11T06:37:26.144Z,4.47
2023-04-11T06:39:53.001Z,4.07
2023-04-11T06:42:19.960Z,2.40
2023-04-11T06:44:47.066Z,3.97
2023-04-11T06:47:13.816Z,7.67
2023-04-11T06:49:41.356Z,4.73
2023-04-11T06:52:08.145Z,1.90
2023-04-11T06:54:34.971Z,1.37
2023-04-11T06:57:02.407Z,2.77
2023-04-11T06:59:29.526Z,1.40
2023-04-11T07:01:58.750Z,2.47
2023-04-11T07:04:26.063Z,4.80
2023-04-11T07:06:53.058Z,1.63
2023-04-11T07:09:19.774Z,2.57
2023-04-11T07:11:46.455Z,2.03
2023-04-11T07:14:13.241Z,1.90
2023-04-11T07:16:40.093Z,1.50
2023-04-11T07:19:06.930Z,1.33
2023-04-11T07:21:33.789Z,1.93
2023-04-11T07:24:01.037Z,1.30
2023-04-11T07:26:32.145Z,2.43
2023-04-11T07:28:59.590Z,1.57
2023-04-11T07:31:27.341Z,1.33
2023-04-11T07:33:54.509Z,1.43
2023-04-11T07:36:21.816Z,2.20
2023-04-11T07:38:48.877Z,1.87
2023-04-11T07:41:16.389Z,3.30
2023-04-11T07:43:43.405Z,1.20
2023-04-11T07:46:10.319Z,3.03
2023-04-11T07:48:37.076Z,1.57
2023-04-11T07:51:03.882Z,1.87
2023-04-11T07:53:32.919Z,2.17
2023-04-11T07:55:59.952Z,2.40
2023-04-11T07:58:26.687Z,3.77
2023-04-11T08:00:53.742Z,3.93
2023-04-11T08:03:20.979Z,3.57
2023-04-11T08:05:47.985Z,1.90
2023-04-11T08:08:14.776Z,2.45
2023-04-11T08:10:41.523Z,2.20
2023-04-11T08:13:08.248Z,2.50
2023-04-11T08:15:36.932Z,4.95
2023-04-11T08:18:05.785Z,4.90
2023-04-11T08:20:32.632Z,2.72
2023-04-11T08:23:00.509Z,2.17
2023-04-11T08:25:27.559Z,4.07
2023-04-11T08:27:54.316Z,5.07
2023-04-11T08:30:21.395Z,7.53
2023-04-11T08:32:48.149Z,4.97
2023-04-11T08:35:14.941Z,3.83
2023-04-11T08:37:41.682Z,3.03
2023-04-11T08:40:09.250Z,3.85
2023-04-11T08:42:36.467Z,3.13
2023-04-11T08:45:05.972Z,3.92
2023-04-11T08:47:32.937Z,5.35
2023-04-11T08:49:59.651Z,5.10
2023-04-11T08:52:26.412Z,7.32
2023-04-11T08:54:57.402Z,5.07
2023-04-11T08:57:31.613Z,6.32
2023-04-11T09:00:00.803Z,3.05
2023-04-11T09:02:27.909Z,4.07
2023-04-11T09:04:57.713Z,8.82
2023-04-11T09:07:24.654Z,6.22
2023-04-11T09:09:51.343Z,6.57
2023-04-11T09:12:29.299Z,4.30
2023-04-11T09:14:56.521Z,7.63
2023-04-11T09:17:23.324Z,3.70
2023-04-11T09:19:50.162Z,5.45
2023-04-11T09:22:16.906Z,3.95
2023-04-11T09:24:43.691Z,6.35
2023-04-11T09:27:19.693Z,5.18
2023-04-11T09:29:48.132Z,3.55
2023-04-11T09:32:35.076Z,6.43
2023-04-11T09:35:20.589Z,3.17
2023-04-11T09:37:57.934Z,4.15
2023-04-11T09:40:26.866Z,4.82
2023-04-11T09:42:58.762Z,2.58
2023-04-11T09:45:26.548Z,3.13
2023-04-11T09:47:55.935Z,4.03
2023-04-11T09:50:24.103Z,6.07
2023-04-11T09:52:52.812Z,5.47
2023-04-11T09:55:21.579Z,4.70
2023-04-11T09:57:53.318Z,3.80
2023-04-11T10:00:20.233Z,3.17
2023-04-11T10:02:50.158Z,2.58
2023-04-11T10:05:19.367Z,3.55
2023-04-11T10:07:52.538Z,4.72
2023-04-11T10:10:21.251Z,4.35
2023-04-11T10:12:49.077Z,5.32
2023-04-11T10:15:17.116Z,4.90
2023-04-11T10:18:07.508Z,5.05
2023-04-11T10:20:50.421Z,4.10
2023-04-11T10:23:17.430Z,5.47
2023-04-11T10:26:00.727Z,4.22
2023-04-11T10:28:38.579Z,2.28
2023-04-11T10:31:13.256Z,3.72
2023-04-11T10:34:01.145Z,3.40
2023-04-11T10:36:27.913Z,2.92
2023-04-11T10:38:54.637Z,3.15
2023-04-11T10:41:33.441Z,5.07
2023-04-11T10:44:24.749Z,3.00
2023-04-11T10:46:54.640Z,2.53
2023-04-11T10:49:38.753Z,6.65
2023-04-11T10:52:23.145Z,3.70
2023-04-11T10:54:53.854Z,3.85
2023-04-11T10:57:21.690Z,3.15
2023-04-11T10:59:51.533Z,4.28
2023-04-11T11:02:19.868Z,4.10
2023-04-11T11:04:47.327Z,3.63
2023-04-11T11:07:18.766Z,4.28
2023-04-11T11:09:52.610Z,3.15
2023-04-11T11:12:19.350Z,2.92
2023-04-11T11:14:47.348Z,4.18
2023-04-11T11:17:16.109Z,2.58
2023-04-11T11:19:47.760Z,3.38
2023-04-11T11:22:18.632Z,2.47
2023-04-11T11:24:45.443Z,2.70
2023-04-11T11:27:25.115Z,4.65
2023-04-11T11:29:52.463Z,2.95
2023-04-11T11:32:28.950Z,5.38
2023-04-11T11:34:57.497Z,3.67
2023-04-11T11:37:25.014Z,5.03
2023-04-11T11:39:52.155Z,3.50
2023-04-11T11:42:19.331Z,4.32
2023-04-11T11:44:46.340Z,2.80
2023-04-11T11:47:16.629Z,4.72
2023-04-11T11:49:51.152Z,2.40
2023-04-11T11:52:39.767Z,3.05
2023-04-11T11:55:11.464Z,2.63
2023-04-11T11:57:43.874Z,4.18
2023-04-11T12:00:11.672Z,2.65
2023-04-11T12:02:40.141Z,2.60
2023-04-11T12:05:08.574Z,3.10
2023-04-11T12:07:38.091Z,2.28
2023-04-11T12:10:11.883Z,3.00
2023-04-11T12:12:41.290Z,4.53
2023-04-11T12:15:12.393Z,4.30
2023-04-11T12:17:39.863Z,2.53
2023-04-11T12:20:08.021Z,1.88
2023-04-11T12:22:35.362Z,3.88
2023-04-11T12:25:08.178Z,3.42
2023-04-11T12:27:36.775Z,1.52
2023-04-11T12:30:04.341Z,2.72
2023-04-11T12:32:33.888Z,3.05
2023-04-11T12:35:01.571Z,1.60
2023-04-11T12:37:28.346Z,2.42
2023-04-11T12:39:55.092Z,1.75
2023-04-11T12:42:26.753Z,3.05
2023-04-11T12:44:54.622Z,4.07
2023-04-11T12:47:21.464Z,3.42
2023-04-11T12:49:48.241Z,5.00
2023-04-11T12:52:15.638Z,2.30
2023-04-11T12:54:42.554Z,1.17
2023-04-11T12:57:09.943Z,4.20
2023-04-11T12:59:36.839Z,3.53
2023-04-11T13:02:03.738Z,2.35
2023-04-11T13:04:30.925Z,3.42
2023-04-11T13:07:01.338Z,2.13
2023-04-11T13:09:34.265Z,3.60
2023-04-11T13:12:01.948Z,5.72
2023-04-11T13:14:29.063Z,2.38
2023-04-11T13:16:56.979Z,2.30
2023-04-11T13:19:23.932Z,3.95
2023-04-11T13:21:50.624Z,2.05
2023-04-11T13:24:17.507Z,3.13
2023-04-11T13:26:45.105Z,6.43
2023-04-11T13:29:14.638Z,4.15
2023-04-11T13:31:41.486Z,2.45
2023-04-11T13:34:08.330Z,1.27
2023-04-11T13:36:35.638Z,3.30
2023-04-11T13:39:02.515Z,4.80
2023-04-11T13:41:29.215Z,0.98
2023-04-11T13:43:56.007Z,1.83
2023-04-11T13:46:23.298Z,2.20
2023-04-11T13:48:50.208Z,1.38
2023-04-11T13:51:17.050Z,2.47
2023-04-11T13:53:44.327Z,1.30
2023-04-11T13:56:11.409Z,2.90
2023-04-11T13:58:38.983Z,1.30
2023-04-11T14:01:06.914Z,2.28
2023-04-11T14:03:34.130Z,0.93
2023-04-11T14:06:01.639Z,1.45
2023-04-11T14:08:29.085Z,3.88
2023-04-11T14:10:56.099Z,4.65
2023-04-11T14:13:23.276Z,3.30
2023-04-11T14:16:04.887Z,2.30
2023-04-11T14:18:34.461Z,2.42
2023-04-11T14:21:01.836Z,5.45
2023-04-11T14:23:29.327Z,6.20
2023-04-11T14:25:56.754Z,5.00
2023-04-11T14:28:26.491Z,1.80
2023-04-11T14:30:54.089Z,3.60
2023-04-11T14:33:21.087Z,4.03
2023-04-11T14:35:47.850Z,3.08
2023-04-11T14:38:15.996Z,5.60
2023-04-11T14:40:43.132Z,2.97
2023-04-11T14:43:09.985Z,5.83
2023-04-11T14:45:37.021Z,4.80
2023-04-11T14:48:04.035Z,4.03
2023-04-11T14:50:30.874Z,2.97
2023-04-11T14:52:57.614Z,2.63
2023-04-11T14:55:24.422Z,4.40
2023-04-11T14:57:55.764Z,6.30
2023-04-11T15:00:24.873Z,3.73
2023-04-11T15:02:55.034Z,3.27
2023-04-11T15:05:23.179Z,3.93
2023-04-11T15:07:52.388Z,4.37
2023-04-11T15:10:21.519Z,1.83
2023-04-11T15:12:48.387Z,3.03
2023-04-11T15:15:15.973Z,3.13
2023-04-11T15:17:46.844Z,2.80
2023-04-11T15:20:17.275Z,4.07
2023-04-11T15:22:46.317Z,2.70
2023-04-11T15:25:15.328Z,2.27
2023-04-11T15:27:42.833Z,2.20
2023-04-11T15:30:11.314Z,3.10
2023-04-11T15:32:43.744Z,1.97
2023-04-11T15:35:11.102Z,3.17
2023-04-11T15:37:37.894Z,1.60
2023-04-11T15:40:06.471Z,2.17
2023-04-11T15:42:35.464Z,2.40
2023-04-11T15:45:02.646Z,3.57
2023-04-11T15:47:30.243Z,2.33
2023-04-11T15:49:59.040Z,1.67
2023-04-11T15:52:26.425Z,4.43
2023-04-11T15:54:53.455Z,3.60
2023-04-11T15:57:20.429Z,3.13
2023-04-11T15:59:48.285Z,2.90
2023-04-11T16:02:15.387Z,4.10
2023-04-11T16:04:46.311Z,0.87
2023-04-11T16:07:18.325Z,2.70
2023-04-11T16:09:45.333Z,4.40
2023-04-11T16:12:12.218Z,3.23
2023-04-11T16:14:40.047Z,3.07
2023-04-11T16:17:06.805Z,3.37
2023-04-11T16:19:33.715Z,3.33
2023-04-11T16:22:00.929Z,2.07
2023-04-11T16:24:31.140Z,1.50
2023-04-11T16:26:58.373Z,3.20
2023-04-11T16:29:25.424Z,3.90
2023-04-11T16:31:52.586Z,4.10
2023-04-11T16:34:19.647Z,4.20
2023-04-11T16:36:46.790Z,3.27
2023-04-11T16:39:13.912Z,2.93
2023-04-11T16:41:40.622Z,3.30
2023-04-11T16:44:11.537Z,3.43
2023-04-11T16:46:42.043Z,4.83
2023-04-11T16:49:09.672Z,2.77
2023-04-11T16:51:37.744Z,4.17
2023-04-11T16:54:09.691Z,2.70
2023-04-11T16:56:37.485Z,1.97
2023-04-11T16:59:05.266Z,3.83
2023-04-11T17:01:32.460Z,1.93
2023-04-11T17:04:01.133Z,3.20
2023-04-11T17:06:28.375Z,3.00
2023-04-11T17:08:57.069Z,3.23
2023-04-11T17:11:24.107Z,7.77
2023-04-11T17:13:51.546Z,4.47
2023-04-11T17:16:18.482Z,4.53
2023-04-11T17:18:45.367Z,6.77
2023-04-11T17:21:12.263Z,6.70
2023-04-11T17:23:43.073Z,19.77
2023-04-11T17:26:10.834Z,17.90
2023-04-11T17:28:39.534Z,11.33
2023-04-11T17:31:13.240Z,13.83
2023-04-11T17:33:40.713Z,14.33
2023-04-11T17:36:08.253Z,12.83
2023-04-11T17:38:36.994Z,13.60
2023-04-11T17:41:13.838Z,12.47
2023-04-11T17:43:43.916Z,7.17
2023-04-11T17:46:10.760Z,5.40
2023-04-11T17:48:37.784Z,6.00
2023-04-11T17:51:05.809Z,6.10
2023-04-11T17:53:33.372Z,5.17
2023-04-11T17:56:05.867Z,6.40
2023-04-11T17:58:33.106Z,6.33
2023-04-11T18:01:00.063Z,6.97
2023-04-11T18:03:26.967Z,4.80
2023-04-11T18:05:54.768Z,6.20
2023-04-11T18:08:28.727Z,4.00
2023-04-11T18:10:58.174Z,6.00
2023-04-11T18:13:26.934Z,4.67
2023-04-11T18:15:53.649Z,4.80
2023-04-11T18:18:20.369Z,7.63
2023-04-11T18:20:47.233Z,5.10
2023-04-11T18:23:13.993Z,6.67
2023-04-11T18:25:40.906Z,5.00
2023-04-11T18:28:07.730Z,3.63
2023-04-11T18:30:34.622Z,3.83
2023-04-11T18:33:01.593Z,3.70
2023-04-11T18:35:28.691Z,3.80
2023-04-11T18:37:56.032Z,2.43
2023-04-11T18:40:22.984Z,4.60
2023-04-11T18:42:52.970Z,6.10
2023-04-11T18:45:21.917Z,3.70
2023-04-11T18:47:49.270Z,6.57
2023-04-11T18:50:17.251Z,3.60
2023-04-11T18:52:45.600Z,4.90
2023-04-11T18:55:14.092Z,4.87
2023-04-11T18:57:41.907Z,5.03
2023-04-11T19:00:19.011Z,5.37
2023-04-11T19:02:47.696Z,3.30
2023-04-11T19:05:15.227Z,5.37
2023-04-11T19:07:43.420Z,3.57
2023-04-11T19:10:11.450Z,3.00
2023-04-11T19:12:38.843Z,3.13
2023-04-11T19:15:07.976Z,5.90
2023-04-11T19:17:36.504Z,4.40
2023-04-11T19:20:07.185Z,4.67
2023-04-11T19:22:39.854Z,8.07
2023-04-11T19:25:09.547Z,3.83
2023-04-11T19:27:39.160Z,5.67
2023-04-11T19:30:08.481Z,4.87
2023-04-11T19:32:38.544Z,5.50
2023-04-11T19:35:08.842Z,3.17
2023-04-11T19:37:36.546Z,6.73
2023-04-11T19:40:07.378Z,3.73
2023-04-11T19:42:37.012Z,4.17
2023-04-11T19:45:05.167Z,4.67
2023-04-11T19:47:32.637Z,4.83
2023-04-11T19:50:00.985Z,4.17
2023-04-11T19:52:28.796Z,4.10
2023-04-11T19:54:56.655Z,6.90
2023-04-11T19:57:26.436Z,3.43
2023-04-11T19:59:53.488Z,4.10
2023-04-11T20:02:20.610Z,3.63
2023-04-11T20:04:48.127Z,3.93
2023-04-11T20:07:15.784Z,2.93
2023-04-11T20:09:42.663Z,4.57
2023-04-11T20:12:09.555Z,5.53
2023-04-11T20:14:37.981Z,5.07
2023-04-11T20:17:05.842Z,6.70
2023-04-11T20:19:33.256Z,5.57
2023-04-11T20:22:01.183Z,8.40
2023-04-11T20:24:28.265Z,7.23
2023-04-11T20:26:56.965Z,6.90
2023-04-11T20:29:24.784Z,6.67
2023-04-11T20:31:51.609Z,3.93
2023-04-11T20:34:18.345Z,5.10
2023-04-11T20:36:45.028Z,4.33
2023-04-11T20:39:11.857Z,5.33
2023-04-11T20:41:40.505Z,4.23
2023-04-11T20:44:07.382Z,8.63
2023-04-11T20:46:39.358Z,4.60
2023-04-11T20:49:06.865Z,4.03
2023-04-11T20:51:34.605Z,4.37
2023-04-11T20:54:01.455Z,4.37
2023-04-11T20:56:28.399Z,8.23
2023-04-11T20:58:55.106Z,5.40
2023-04-11T21:01:22.603Z,3.83
2023-04-11T21:03:51.291Z,4.93
2023-04-11T21:06:18.269Z,3.07
2023-04-11T21:08:45.066Z,3.23
2023-04-11T21:11:11.801Z,7.67
2023-04-11T21:13:38.524Z,4.83
2023-04-11T21:16:05.675Z,4.57
2023-04-11T21:18:32.547Z,2.63
2023-04-11T21:20:59.255Z,3.20
2023-04-11T21:23:26.400Z,5.60
2023-04-11T21:25:53.100Z,6.73
2023-04-11T21:28:19.803Z,5.97
2023-04-11T21:30:46.485Z,3.43
2023-04-11T21:33:13.236Z,5.60
2023-04-11T21:35:40.128Z,7.83
2023-04-11T21:38:06.889Z,4.23
2023-04-11T21:40:33.584Z,3.83
2023-04-11T21:43:00.432Z,4.90
2023-04-11T21:45:27.511Z,5.03
2023-04-11T21:47:54.436Z,5.00
2023-04-11T21:50:21.194Z,6.27
2023-04-11T21:52:47.981Z,5.67
2023-04-11T21:55:15.368Z,7.67
2023-04-11T21:57:42.141Z,3.13
2023-04-11T22:00:11.099Z,4.60
2023-04-11T22:02:38.763Z,5.17
2023-04-11T22:05:08.257Z,4.73
2023-04-11T22:07:38.976Z,2.60
2023-04-11T22:10:10.011Z,6.13
2023-04-11T22:12:37.508Z,4.17
2023-04-11T22:15:06.516Z,2.37
2023-04-11T22:17:33.358Z,2.87
2023-04-11T22:20:00.652Z,4.17
2023-04-11T22:22:30.920Z,4.70
2023-04-11T22:24:58.114Z,3.17
2023-04-11T22:27:26.450Z,3.60
2023-04-11T22:29:56.148Z,3.93
2023-04-11T22:32:23.724Z,5.77
2023-04-11T22:34:50.558Z,4.57
2023-04-11T22:37:17.498Z,3.97
2023-04-11T22:39:44.249Z,2.80
2023-04-11T22:42:11.663Z,5.00
2023-04-11T22:44:38.458Z,3.47
2023-04-11T22:47:07.218Z,4.27
2023-04-11T22:49:40.486Z,5.80
2023-04-11T22:52:08.705Z,3.27
2023-04-11T22:54:35.570Z,3.83
2023-04-11T22:57:02.360Z,4.33
2023-04-11T22:59:29.210Z,4.40
2023-04-11T23:01:56.031Z,5.10
2023-04-11T23:04:23.378Z,5.73
2023-04-11T23:06:51.329Z,4.70
2023-04-11T23:09:18.767Z,5.03
2023-04-11T23:11:47.506Z,7.83
2023-04-11T23:14:15.439Z,4.07
2023-04-11T23:16:43.447Z,3.10
2023-04-11T23:19:10.794Z,4.80
2023-04-11T23:21:37.955Z,3.67
2023-04-11T23:24:06.812Z,5.67
2023-04-11T23:26:33.873Z,3.50
2023-04-11T23:29:04.450Z,4.83
2023-04-11T23:31:34.225Z,4.50
2023-04-11T23:34:01.318Z,8.87
2023-04-11T23:36:29.092Z,6.27
2023-04-11T23:38:56.035Z,8.17
2023-04-11T23:41:23.022Z,7.30
2023-04-11T23:43:50.266Z,6.20
2023-04-11T23:46:18.192Z,5.80
2023-04-11T23:48:46.969Z,5.40
2023-04-11T23:51:14.111Z,5.40
2023-04-11T23:53:42.525Z,6.00
2023-04-11T23:56:09.803Z,6.17
2023-04-11T23:58:36.719Z,3.50
